Time;durP1;ratioP1;P1;durP2;ratioP2;P2;SDS_P1;SDS_P2;PMS_P1;PMS_P2;Temp;Humidity;BMP_temperature;BMP_pressure;BME280_temperature;BME280_humidity;BME280_pressure;Samples;Min_cycle;Max_cycle;Signal;HPM_P1;HPM_P2
2024/01/30 00:01:16;;;;;;;26.57;9.57;;;6.80;99.90;;;;;;5080170;28;20192;-81
2024/01/30 00:03:42;;;;;;;28.20;9.27;;;6.80;99.90;;;;;;5081878;28;20405;-81
2024/01/30 00:06:08;;;;;;;25.90;9.80;;;6.80;99.90;;;;;;5082098;28;20410;-81
2024/01/30 00:08:34;;;;;;;26.83;9.80;;;6.80;99.90;;;;;;5080862;28;20263;-81
2024/01/30 00:11:00;;;;;;;30.80;9.88;;;6.80;99.90;;;;;;5080179;28;20714;-81
2024/01/30 00:13:26;;;;;;;25.85;9.85;;;6.80;99.90;;;;;;5082260;28;20173;-82
2024/01/30 00:15:52;;;;;;;25.63;8.97;;;6.70;99.90;;;;;;5092398;28;20179;-83
2024/01/30 00:21:21;;;;;;;23.85;8.50;;;6.70;99.90;;;;;;5094116;28;20264;-83
2024/01/30 00:23:47;;;;;;;27.67;10.20;;;6.70;99.90;;;;;;5094199;28;20169;-83
2024/01/30 00:26:14;;;;;;;26.70;8.98;;;6.70;99.90;;;;;;5094040;28;20407;-83
2024/01/30 00:28:41;;;;;;;30.10;10.93;;;6.60;99.90;;;;;;5094115;28;20160;-83
2024/01/30 00:31:07;;;;;;;30.65;10.80;;;6.60;99.90;;;;;;5093810;28;20157;-83
2024/01/30 00:33:32;;;;;;;25.53;10.50;;;6.70;99.90;;;;;;5096178;28;20172;-81
2024/01/30 00:35:58;;;;;;;27.27;10.77;;;6.60;99.90;;;;;;5097633;28;20169;-82
2024/01/30 00:38:24;;;;;;;29.03;10.20;;;6.60;99.90;;;;;;5093416;28;20681;-83
2024/01/30 00:40:50;;;;;;;28.63;11.30;;;6.60;99.90;;;;;;5092069;28;20512;-83
2024/01/30 00:43:16;;;;;;;29.27;9.50;;;6.60;99.90;;;;;;5091965;28;20169;-83
2024/01/30 00:45:45;;;;;;;27.48;10.45;;;6.50;99.90;;;;;;5092701;28;20164;-83
2024/01/30 00:48:10;;;;;;;25.33;8.88;;;6.50;99.90;;;;;;5092619;28;20181;-83
2024/01/30 00:50:36;;;;;;;26.20;9.33;;;6.50;99.90;;;;;;5092494;28;20240;-83
2024/01/30 00:53:02;;;;;;;23.73;9.40;;;6.50;99.90;;;;;;5092101;28;20240;-83
2024/01/30 00:55:27;;;;;;;24.90;8.90;;;6.50;99.90;;;;;;5091759;28;20179;-83
2024/01/30 00:57:53;;;;;;;28.00;10.33;;;6.40;99.90;;;;;;5090820;28;20192;-83
2024/01/30 01:00:20;;;;;;;25.50;9.70;;;6.40;99.90;;;;;;5092456;28;20195;-83
2024/01/30 01:02:46;;;;;;;33.88;10.35;;;6.50;99.90;;;;;;5091962;28;20169;-83
2024/01/30 01:05:12;;;;;;;30.27;10.30;;;6.40;99.90;;;;;;5091492;28;20188;-83
2024/01/30 01:07:38;;;;;;;25.13;9.67;;;6.40;99.90;;;;;;5091729;28;20415;-83
2024/01/30 01:10:04;;;;;;;27.17;9.77;;;6.40;99.90;;;;;;5092111;28;20403;-83
2024/01/30 01:12:29;;;;;;;28.93;11.00;;;6.40;99.90;;;;;;5092019;28;20244;-83
2024/01/30 01:14:55;;;;;;;27.90;10.90;;;6.50;99.90;;;;;;5091972;28;20402;-83
2024/01/30 01:17:21;;;;;;;32.60;12.10;;;6.50;99.90;;;;;;5092018;28;20207;-83
2024/01/30 01:19:46;;;;;;;27.63;11.00;;;6.50;99.90;;;;;;5092084;28;20196;-83
2024/01/30 01:22:12;;;;;;;32.23;10.53;;;6.40;99.90;;;;;;5091734;28;20165;-83
2024/01/30 01:24:38;;;;;;;28.73;10.83;;;6.40;99.90;;;;;;5092026;28;20172;-83
2024/01/30 01:27:05;;;;;;;26.60;10.37;;;6.40;99.90;;;;;;5090626;28;20279;-83
2024/01/30 01:29:31;;;;;;;29.13;10.15;;;6.40;99.90;;;;;;5092543;28;20232;-83
2024/01/30 01:31:57;;;;;;;29.27;9.97;;;6.40;99.90;;;;;;5091142;28;20187;-83
2024/01/30 01:34:25;;;;;;;30.77;10.67;;;6.40;99.90;;;;;;5092405;28;20188;-83
2024/01/30 01:36:51;;;;;;;29.27;10.27;;;6.50;99.90;;;;;;5091901;28;20188;-83
2024/01/30 01:39:17;;;;;;;27.10;11.30;;;6.40;99.90;;;;;;5091555;28;20270;-83
2024/01/30 01:41:43;;;;;;;28.13;11.27;;;6.40;99.90;;;;;;5090256;28;20172;-83
2024/01/30 01:44:09;;;;;;;36.93;9.87;;;6.40;99.90;;;;;;5091561;28;20164;-83
2024/01/30 01:46:36;;;;;;;27.38;9.93;;;6.40;99.90;;;;;;5091714;28;20184;-83
2024/01/30 01:49:04;;;;;;;30.20;11.07;;;6.40;99.90;;;;;;5091604;28;20160;-83
2024/01/30 01:51:33;;;;;;;30.90;11.50;;;6.40;99.90;;;;;;5090589;28;20164;-83
2024/01/30 01:54:03;;;;;;;31.10;11.13;;;6.40;99.90;;;;;;5092001;28;20221;-83
2024/01/30 01:56:31;;;;;;;28.83;10.85;;;6.40;99.90;;;;;;5091079;28;20156;-83
2024/01/30 01:59:04;;;;;;;29.50;9.70;;;6.40;99.90;;;;;;5091912;28;20177;-83
2024/01/30 02:01:30;;;;;;;27.38;10.25;;;6.40;99.90;;;;;;5091949;28;20252;-83
2024/01/30 02:03:56;;;;;;;26.88;10.75;;;6.40;99.90;;;;;;5091728;28;20161;-83
2024/01/30 02:06:23;;;;;;;24.87;9.90;;;6.40;99.90;;;;;;5090648;28;20198;-83
2024/01/30 02:08:48;;;;;;;25.20;9.38;;;6.40;99.90;;;;;;5091134;28;20184;-83
2024/01/30 02:11:15;;;;;;;26.50;9.73;;;6.40;99.90;;;;;;5090711;28;20179;-83
2024/01/30 02:13:41;;;;;;;28.60;9.77;;;6.40;99.90;;;;;;5090817;28;20181;-83
2024/01/30 02:16:06;;;;;;;30.23;9.60;;;6.40;99.90;;;;;;5090174;28;20191;-83
2024/01/30 02:18:32;;;;;;;24.57;9.60;;;6.40;99.90;;;;;;5089271;28;20185;-83
2024/01/30 02:21:01;;;;;;;37.23;9.90;;;6.40;99.90;;;;;;5089496;28;20196;-83
2024/01/30 02:23:27;;;;;;;28.38;9.95;;;6.40;99.90;;;;;;5090780;28;20164;-83
2024/01/30 02:25:53;;;;;;;24.47;9.97;;;6.40;99.90;;;;;;5090500;28;20622;-83
2024/01/30 02:28:20;;;;;;;32.85;10.15;;;6.40;99.90;;;;;;5090405;28;20852;-83
2024/01/30 02:30:46;;;;;;;28.92;10.50;;;6.40;99.90;;;;;;5090095;28;20224;-83
2024/01/30 02:33:12;;;;;;;28.70;10.25;;;6.30;99.90;;;;;;5088406;28;20180;-83
2024/01/30 02:35:38;;;;;;;25.05;9.18;;;6.30;99.90;;;;;;5089977;28;20173;-83
2024/01/30 02:38:04;;;;;;;27.80;11.17;;;6.40;99.90;;;;;;5089402;28;20188;-82
2024/01/30 02:40:30;;;;;;;30.43;10.70;;;6.40;99.90;;;;;;5088441;28;20192;-83
2024/01/30 02:42:56;;;;;;;29.13;10.23;;;6.40;99.90;;;;;;5089882;28;20459;-83
2024/01/30 02:45:22;;;;;;;25.77;10.35;;;6.40;99.90;;;;;;5089391;28;20160;-83
2024/01/30 02:47:47;;;;;;;31.53;11.23;;;6.40;99.90;;;;;;5089525;28;20199;-83
2024/01/30 02:50:14;;;;;;;23.57;9.10;;;6.40;99.90;;;;;;5089994;28;20224;-82
2024/01/30 02:52:40;;;;;;;26.15;9.70;;;6.40;99.90;;;;;;5089964;28;20160;-83
2024/01/30 02:55:06;;;;;;;26.08;8.88;;;6.40;99.90;;;;;;5088800;28;20175;-83
2024/01/30 02:57:32;;;;;;;28.58;9.05;;;6.40;99.90;;;;;;5089464;28;20207;-82
2024/01/30 02:59:58;;;;;;;25.90;9.60;;;6.30;99.90;;;;;;5088242;28;20231;-82
2024/01/30 03:02:24;;;;;;;27.30;11.10;;;6.30;99.90;;;;;;5089671;28;20183;-82
2024/01/30 03:04:49;;;;;;;31.23;10.43;;;6.30;99.90;;;;;;5088117;28;20415;-82
2024/01/30 03:07:15;;;;;;;26.90;10.03;;;6.30;99.90;;;;;;5088525;28;20244;-83
2024/01/30 03:09:44;;;;;;;35.50;9.03;;;6.30;99.90;;;;;;5088416;28;20243;-82
2024/01/30 03:12:10;;;;;;;31.15;9.82;;;6.30;99.90;;;;;;5089214;28;20160;-82
2024/01/30 03:14:35;;;;;;;26.83;9.30;;;6.30;99.90;;;;;;5089560;28;20228;-83
2024/01/30 03:17:01;;;;;;;32.07;9.97;;;6.30;99.90;;;;;;5088639;28;20248;-83
2024/01/30 03:19:27;;;;;;;31.73;10.00;;;6.30;99.90;;;;;;5088792;28;20550;-83
2024/01/30 03:21:53;;;;;;;28.60;10.30;;;6.30;99.90;;;;;;5089159;28;20164;-83
2024/01/30 03:24:22;;;;;;;28.58;9.70;;;6.30;99.90;;;;;;5091057;28;20224;-82
2024/01/30 03:26:50;;;;;;;25.75;9.30;;;6.30;99.90;;;;;;5090458;28;20216;-82
2024/01/30 03:29:18;;;;;;;26.20;10.25;;;6.30;99.90;;;;;;5093977;28;20161;-83
2024/01/30 03:31:44;;;;;;;25.45;9.38;;;6.20;99.90;;;;;;5093658;28;20165;-82
2024/01/30 03:34:10;;;;;;;30.07;10.00;;;6.20;99.90;;;;;;5093245;28;20179;-82
2024/01/30 03:36:35;;;;;;;29.73;10.13;;;6.30;99.90;;;;;;5092482;28;20195;-83
2024/01/30 03:39:01;;;;;;;27.97;10.47;;;6.30;99.90;;;;;;5093152;28;20222;-83
2024/01/30 03:41:27;;;;;;;26.20;9.23;;;6.20;99.90;;;;;;5092493;28;20196;-83
2024/01/30 03:43:53;;;;;;;24.40;8.80;;;6.20;99.90;;;;;;5092657;28;20171;-83
2024/01/30 03:46:18;;;;;;;27.00;9.90;;;6.20;99.90;;;;;;5092672;28;20168;-82
2024/01/30 03:48:46;;;;;;;24.63;8.77;;;6.30;99.90;;;;;;5092123;28;20200;-83
2024/01/30 03:51:14;;;;;;;25.98;9.50;;;6.30;99.90;;;;;;5091414;28;20172;-82
2024/01/30 03:53:41;;;;;;;27.48;9.88;;;6.30;99.90;;;;;;5091899;28;20168;-82
2024/01/30 03:56:07;;;;;;;26.05;9.27;;;6.30;99.90;;;;;;5090872;28;20236;-82
2024/01/30 03:58:32;;;;;;;24.80;8.70;;;6.30;99.90;;;;;;5092633;28;20223;-83
2024/01/30 04:00:58;;;;;;;25.70;9.90;;;6.40;99.90;;;;;;5091949;28;20442;-82
2024/01/30 04:03:24;;;;;;;24.57;9.20;;;6.40;99.90;;;;;;5092309;28;20186;-83
2024/01/30 04:05:52;;;;;;;23.27;8.80;;;6.40;99.90;;;;;;5092041;28;20187;-83
2024/01/30 04:08:18;;;;;;;23.63;7.93;;;6.50;99.90;;;;;;5092078;28;20442;-82
2024/01/30 04:10:44;;;;;;;27.10;8.77;;;6.50;99.90;;;;;;5092198;28;20175;-82
2024/01/30 04:13:10;;;;;;;26.05;9.38;;;6.50;99.90;;;;;;5091924;28;20168;-83
2024/01/30 04:15:36;;;;;;;23.20;8.20;;;6.60;99.90;;;;;;5092349;28;20179;-82
2024/01/30 04:18:02;;;;;;;27.20;9.57;;;6.60;99.90;;;;;;5091993;28;20223;-83
2024/01/30 04:20:27;;;;;;;28.33;9.30;;;6.60;99.90;;;;;;5091830;28;20184;-82
2024/01/30 04:22:53;;;;;;;27.60;9.23;;;6.70;99.90;;;;;;5092528;28;20214;-83
2024/01/30 04:25:19;;;;;;;24.97;8.87;;;6.70;99.90;;;;;;5092014;28;20160;-82
2024/01/30 04:27:44;;;;;;;26.57;9.93;;;6.70;99.90;;;;;;5092403;28;20213;-82
2024/01/30 04:30:11;;;;;;;25.43;9.87;;;6.70;99.90;;;;;;5091952;28;20196;-83
2024/01/30 04:32:37;;;;;;;23.75;8.70;;;6.70;99.90;;;;;;5091400;28;20172;-82
2024/01/30 04:35:03;;;;;;;22.63;7.65;;;6.60;99.90;;;;;;5090891;28;20179;-82
2024/01/30 04:37:28;;;;;;;32.10;9.40;;;6.60;99.90;;;;;;5091928;28;20184;-83
2024/01/30 04:39:54;;;;;;;22.60;8.83;;;6.60;99.90;;;;;;5091570;28;20252;-82
2024/01/30 04:42:20;;;;;;;25.13;8.90;;;6.60;99.90;;;;;;5093150;28;20169;-83
2024/01/30 04:44:46;;;;;;;26.97;8.93;;;6.60;99.90;;;;;;5092998;28;20560;-82
2024/01/30 04:47:11;;;;;;;22.30;8.00;;;6.60;99.90;;;;;;5092462;28;20192;-83
2024/01/30 04:49:40;;;;;;;25.93;7.87;;;6.60;99.90;;;;;;5092571;28;20176;-82
2024/01/30 04:52:07;;;;;;;23.67;7.35;;;6.60;99.90;;;;;;5091468;28;20406;-83
2024/01/30 04:54:34;;;;;;;27.88;8.10;;;6.60;99.90;;;;;;5088999;28;20172;-82
2024/01/30 04:57:03;;;;;;;25.13;7.80;;;6.60;99.90;;;;;;5089224;28;20192;-83
2024/01/30 04:59:29;;;;;;;23.77;8.63;;;6.60;99.90;;;;;;5088368;28;20208;-82
2024/01/30 05:01:54;;;;;;;26.30;7.80;;;6.60;99.90;;;;;;5088328;28;20247;-81
2024/01/30 05:04:21;;;;;;;25.77;8.63;;;6.50;99.90;;;;;;5090004;28;20165;-82
2024/01/30 05:06:47;;;;;;;24.48;8.45;;;6.50;99.90;;;;;;5089267;28;20514;-82
2024/01/30 05:09:13;;;;;;;29.20;8.70;;;6.60;99.90;;;;;;5089105;28;20184;-81
2024/01/30 05:11:39;;;;;;;25.53;8.40;;;6.50;99.90;;;;;;5089463;28;20161;-82
2024/01/30 05:14:05;;;;;;;25.50;9.50;;;6.50;99.90;;;;;;5090970;28;20194;-83
2024/01/30 05:16:33;;;;;;;26.27;8.95;;;6.50;99.90;;;;;;5091236;28;20203;-82
2024/01/30 05:18:59;;;;;;;25.10;8.15;;;6.50;99.90;;;;;;5090916;28;20221;-83
2024/01/30 05:21:25;;;;;;;25.53;8.20;;;6.50;99.90;;;;;;5090559;28;20196;-83
2024/01/30 05:23:51;;;;;;;24.33;8.13;;;6.50;99.90;;;;;;5089506;28;20188;-82
2024/01/30 05:26:16;;;;;;;20.75;6.70;;;6.50;99.90;;;;;;5090538;28;20203;-82
2024/01/30 05:28:44;;;;;;;24.10;7.13;;;6.50;99.90;;;;;;5089855;28;20169;-82
2024/01/30 05:31:10;;;;;;;29.25;8.35;;;6.50;99.90;;;;;;5090577;28;20165;-83
2024/01/30 05:33:35;;;;;;;26.47;6.73;;;6.60;99.90;;;;;;5089876;28;20234;-82
2024/01/30 05:36:01;;;;;;;24.27;8.27;;;6.60;99.90;;;;;;5090069;28;20418;-82
2024/01/30 05:38:27;;;;;;;26.30;8.53;;;6.60;99.90;;;;;;5089970;28;20193;-82
2024/01/30 05:40:52;;;;;;;22.80;7.30;;;6.60;99.90;;;;;;5089880;28;20192;-82
2024/01/30 05:43:18;;;;;;;21.93;6.53;;;6.60;99.90;;;;;;5091196;28;20195;-82
2024/01/30 05:45:44;;;;;;;24.50;7.13;;;6.60;99.90;;;;;;5091272;28;20175;-83
2024/01/30 05:48:10;;;;;;;23.80;8.00;;;6.60;99.90;;;;;;5091106;28;20212;-82
2024/01/30 05:50:35;;;;;;;24.03;7.20;;;6.60;99.90;;;;;;5087536;28;20218;-81
2024/01/30 05:53:02;;;;;;;33.40;7.87;;;6.60;99.90;;;;;;5087214;28;20172;-82
2024/01/30 05:55:28;;;;;;;22.35;8.05;;;6.60;99.90;;;;;;5085067;28;20198;-81
2024/01/30 05:57:53;;;;;;;24.97;7.10;;;6.60;99.90;;;;;;5088114;28;20184;-82
2024/01/30 06:00:19;;;;;;;24.63;7.00;;;6.60;99.90;;;;;;5088804;28;20667;-83
2024/01/30 06:02:45;;;;;;;22.50;7.40;;;6.60;99.90;;;;;;5089645;28;20580;-82
2024/01/30 06:05:10;;;;;;;21.77;6.90;;;6.60;99.90;;;;;;5089342;28;20157;-82
2024/01/30 06:07:36;;;;;;;24.43;7.50;;;6.60;99.90;;;;;;5089044;28;20181;-82
2024/01/30 06:10:02;;;;;;;28.17;7.80;;;6.60;99.90;;;;;;5089513;28;20169;-82
2024/01/30 06:12:28;;;;;;;26.95;7.32;;;6.60;99.90;;;;;;5088102;28;20164;-82
2024/01/30 06:14:56;;;;;;;23.70;7.90;;;6.60;99.90;;;;;;5088783;28;20164;-82
2024/01/30 06:17:22;;;;;;;23.52;6.80;;;6.50;99.90;;;;;;5089302;28;20591;-81
2024/01/30 06:19:48;;;;;;;27.55;7.10;;;6.60;99.90;;;;;;5089800;28;20245;-82
2024/01/30 06:22:14;;;;;;;22.63;7.97;;;6.60;99.90;;;;;;5088115;28;20156;-83
2024/01/30 06:24:39;;;;;;;25.13;7.93;;;6.50;99.90;;;;;;5087604;28;20184;-82
2024/01/30 06:27:05;;;;;;;26.37;9.20;;;6.50;99.90;;;;;;5088379;28;20453;-82
2024/01/30 06:29:31;;;;;;;23.33;8.00;;;6.50;99.90;;;;;;5088107;28;20165;-81
2024/01/30 06:31:57;;;;;;;22.67;7.67;;;6.50;99.90;;;;;;5089974;28;20160;-82
2024/01/30 06:34:22;;;;;;;23.67;8.00;;;6.50;99.90;;;;;;5089581;28;20168;-82
2024/01/30 06:36:48;;;;;;;23.17;7.43;;;6.50;99.90;;;;;;5090242;28;20750;-81
2024/01/30 06:39:14;;;;;;;23.37;7.93;;;6.50;99.90;;;;;;5087741;28;20164;-82
2024/01/30 06:41:39;;;;;;;23.70;7.33;;;6.50;99.90;;;;;;5083240;28;20598;-81
2024/01/30 06:44:06;;;;;;;23.73;8.40;;;6.50;99.90;;;;;;5085136;28;20164;-81
2024/01/30 06:46:32;;;;;;;27.85;8.30;;;6.50;99.90;;;;;;5082803;28;20263;-81
2024/01/30 06:48:58;;;;;;;23.15;8.40;;;6.50;99.90;;;;;;5083434;28;20156;-82
2024/01/30 06:51:23;;;;;;;23.60;7.90;;;6.50;99.90;;;;;;5084704;28;20175;-82
2024/01/30 06:53:49;;;;;;;23.87;8.67;;;6.50;99.90;;;;;;5088228;28;20176;-82
2024/01/30 06:56:16;;;;;;;23.90;7.80;;;6.60;99.90;;;;;;5088834;28;20165;-82
2024/01/30 06:58:42;;;;;;;25.27;8.13;;;6.60;99.90;;;;;;5088006;28;20184;-82
2024/01/30 07:01:07;;;;;;;24.10;8.20;;;6.60;99.90;;;;;;5087728;28;20192;-82
2024/01/30 07:03:33;;;;;;;20.87;7.70;;;6.60;99.90;;;;;;5088138;28;20164;-82
2024/01/30 07:05:59;;;;;;;24.80;7.07;;;6.60;99.90;;;;;;5089439;28;20175;-81
2024/01/30 07:08:24;;;;;;;23.73;8.00;;;6.60;99.90;;;;;;5087726;28;20190;-81
2024/01/30 07:10:50;;;;;;;24.17;7.50;;;6.60;99.90;;;;;;5088141;28;20172;-81
2024/01/30 07:13:16;;;;;;;25.40;8.07;;;6.60;99.90;;;;;;5087152;28;20169;-81
2024/01/30 07:15:42;;;;;;;23.57;7.70;;;6.60;99.90;;;;;;5086405;28;20165;-81
2024/01/30 07:18:09;;;;;;;24.25;7.80;;;6.60;99.90;;;;;;5086910;28;20193;-81
2024/01/30 07:20:35;;;;;;;28.48;7.30;;;6.60;99.90;;;;;;5087078;28;20247;-82
2024/01/30 07:23:01;;;;;;;26.67;8.77;;;6.60;99.90;;;;;;5085950;28;20168;-82
2024/01/30 07:25:29;;;;;;;24.48;8.30;;;6.60;99.90;;;;;;5086621;28;20395;-82
2024/01/30 07:27:55;;;;;;;30.13;8.18;;;6.60;99.90;;;;;;5086135;28;20176;-81
2024/01/30 07:30:21;;;;;;;26.92;8.90;;;6.60;99.90;;;;;;5084503;28;20179;-82
2024/01/30 07:32:46;;;;;;;26.00;8.43;;;6.60;99.90;;;;;;5087071;28;20165;-82
2024/01/30 07:35:13;;;;;;;25.90;8.50;;;6.70;99.90;;;;;;5087056;28;20218;-81
2024/01/30 07:37:39;;;;;;;25.05;8.43;;;6.70;99.90;;;;;;5085293;28;20192;-81
2024/01/30 07:40:06;;;;;;;26.97;8.07;;;6.70;99.90;;;;;;5086731;28;20193;-82
2024/01/30 07:42:32;;;;;;;26.63;8.73;;;6.70;99.90;;;;;;5086505;28;20165;-81
2024/01/30 07:44:58;;;;;;;21.30;7.35;;;6.70;99.90;;;;;;5085555;28;20220;-82
2024/01/30 07:47:23;;;;;;;24.87;8.67;;;6.80;99.90;;;;;;5085150;28;20184;-81
2024/01/30 07:49:49;;;;;;;27.03;9.53;;;6.80;99.90;;;;;;5085305;28;20161;-82
2024/01/30 07:52:15;;;;;;;27.80;9.77;;;6.80;99.90;;;;;;5083521;28;20538;-82
2024/01/30 07:54:50;;;;;;;26.17;8.33;;;6.80;99.90;;;;;;5084057;28;20172;-82
2024/01/30 07:57:16;;;;;;;26.90;8.27;;;6.80;99.90;;;;;;5085883;28;20581;-82
2024/01/30 07:59:45;;;;;;;27.08;8.90;;;6.80;99.90;;;;;;5088946;28;20208;-82
2024/01/30 08:02:14;;;;;;;27.55;10.02;;;6.80;99.90;;;;;;5088820;28;20193;-83
2024/01/30 08:04:40;;;;;;;25.25;9.55;;;6.80;99.90;;;;;;5089671;28;20165;-83
2024/01/30 08:07:05;;;;;;;26.57;8.57;;;6.90;99.90;;;;;;5089927;28;20222;-82
2024/01/30 08:09:31;;;;;;;27.83;9.20;;;6.90;99.90;;;;;;5089700;28;20167;-83
2024/01/30 08:11:57;;;;;;;24.03;8.60;;;6.90;99.90;;;;;;5089834;28;20164;-83
2024/01/30 08:14:22;;;;;;;23.17;7.67;;;6.90;99.90;;;;;;5091419;28;20225;-81
2024/01/30 08:16:48;;;;;;;24.90;8.57;;;6.90;99.90;;;;;;5092269;28;20180;-82
2024/01/30 08:19:17;;;;;;;27.50;10.10;;;7.00;99.90;;;;;;5093587;28;20156;-81
2024/01/30 08:21:43;;;;;;;25.02;9.70;;;7.00;99.90;;;;;;5091611;28;20223;-81
2024/01/30 08:24:08;;;;;;;25.50;8.17;;;7.00;99.90;;;;;;5093083;28;20157;-82
2024/01/30 08:26:34;;;;;;;23.80;8.67;;;7.00;99.90;;;;;;5092587;28;20180;-82
2024/01/30 08:29:01;;;;;;;26.85;9.93;;;7.10;99.90;;;;;;5090518;28;20175;-82
2024/01/30 08:31:27;;;;;;;26.70;8.15;;;7.00;99.90;;;;;;5090283;28;20214;-82
2024/01/30 08:33:52;;;;;;;22.00;7.53;;;7.10;99.90;;;;;;5090431;28;20176;-83
2024/01/30 08:36:18;;;;;;;27.30;8.33;;;7.10;99.90;;;;;;5091036;28;20168;-81
2024/01/30 08:38:44;;;;;;;24.60;8.87;;;7.20;99.90;;;;;;5089694;28;20226;-81
2024/01/30 08:41:10;;;;;;;30.23;9.40;;;7.20;99.90;;;;;;5089407;28;20445;-83
2024/01/30 08:43:36;;;;;;;24.83;9.20;;;7.20;99.90;;;;;;5089251;28;20296;-82
2024/01/30 08:46:02;;;;;;;25.67;8.57;;;7.20;99.90;;;;;;5088561;28;20165;-82
2024/01/30 08:48:28;;;;;;;23.35;8.25;;;7.30;99.90;;;;;;5088755;28;20209;-82
2024/01/30 08:50:53;;;;;;;23.40;8.10;;;7.30;99.90;;;;;;5089674;28;20161;-83
2024/01/30 08:53:19;;;;;;;29.73;11.77;;;7.30;99.90;;;;;;5086485;28;20532;-81
2024/01/30 08:55:45;;;;;;;29.20;10.60;;;7.30;99.90;;;;;;5082640;28;20198;-81
2024/01/30 08:58:11;;;;;;;25.17;9.33;;;7.40;99.90;;;;;;5081712;28;20195;-82
2024/01/30 09:00:36;;;;;;;28.40;8.70;;;7.40;99.90;;;;;;5080986;28;20194;-81
2024/01/30 09:03:03;;;;;;;30.83;9.17;;;7.40;99.90;;;;;;5082965;28;20168;-81
2024/01/30 09:05:29;;;;;;;30.15;8.68;;;7.50;99.90;;;;;;5081633;28;20494;-81
2024/01/30 09:07:54;;;;;;;26.67;9.30;;;7.50;99.90;;;;;;5080140;28;20227;-82
2024/01/30 09:10:20;;;;;;;35.67;11.20;;;7.60;99.90;;;;;;5080161;28;20172;-81
2024/01/30 09:12:46;;;;;;;29.37;9.30;;;7.60;99.90;;;;;;5079056;28;20172;-81
2024/01/30 09:15:12;;;;;;;29.80;9.32;;;7.70;99.90;;;;;;5080848;28;20402;-81
2024/01/30 09:17:38;;;;;;;29.13;9.77;;;7.70;99.90;;;;;;5081335;28;20700;-82
2024/01/30 09:20:04;;;;;;;29.60;10.37;;;7.80;99.90;;;;;;5080064;28;20611;-81
2024/01/30 09:22:31;;;;;;;27.05;9.25;;;7.90;99.90;;;;;;5080585;28;20152;-82
2024/01/30 09:24:57;;;;;;;25.67;8.68;;;8.00;99.90;;;;;;5080696;28;20522;-82
2024/01/30 09:27:22;;;;;;;29.90;10.50;;;8.10;99.90;;;;;;5079639;28;20189;-82
2024/01/30 09:29:48;;;;;;;28.50;10.73;;;8.20;99.90;;;;;;5080329;28;20431;-82
2024/01/30 09:32:14;;;;;;;28.17;9.77;;;8.30;99.90;;;;;;5079039;28;20176;-82
2024/01/30 09:34:39;;;;;;;31.30;9.63;;;8.40;99.90;;;;;;5080665;28;20172;-82
2024/01/30 09:37:05;;;;;;;29.60;9.17;;;8.40;99.90;;;;;;5080525;28;20187;-82
2024/01/30 09:39:31;;;;;;;27.57;9.97;;;8.50;99.90;;;;;;5078969;28;20181;-81
2024/01/30 09:42:02;;;;;;;26.70;9.67;;;8.60;99.90;;;;;;5080881;28;20168;-81
2024/01/30 09:44:30;;;;;;;24.52;9.63;;;8.70;99.90;;;;;;5078760;28;20168;-82
2024/01/30 09:46:58;;;;;;;25.88;8.13;;;8.70;99.90;;;;;;5079755;28;20206;-82
2024/01/30 09:49:25;;;;;;;28.48;9.75;;;8.80;99.90;;;;;;5079415;28;20248;-81
2024/01/30 09:51:53;;;;;;;26.00;9.30;;;8.80;99.90;;;;;;5079577;28;20160;-82
2024/01/30 09:54:19;;;;;;;28.95;10.25;;;8.80;99.90;;;;;;5079628;28;20157;-81
2024/01/30 09:56:45;;;;;;;27.00;9.40;;;8.80;99.90;;;;;;5078047;28;20188;-82
2024/01/30 09:59:13;;;;;;;25.40;9.17;;;8.90;99.90;;;;;;5078273;28;20188;-82
2024/01/30 10:01:40;;;;;;;26.40;9.95;;;8.90;99.90;;;;;;5078802;28;20184;-82
2024/01/30 10:04:06;;;;;;;28.05;10.13;;;8.90;99.90;;;;;;5078966;28;20172;-82
2024/01/30 10:06:32;;;;;;;27.15;10.25;;;9.00;99.90;;;;;;5078914;28;20161;-81
2024/01/30 10:08:58;;;;;;;26.90;9.93;;;9.00;99.90;;;;;;5078531;28;20164;-82
2024/01/30 10:11:23;;;;;;;25.73;9.20;;;9.10;99.90;;;;;;5079796;28;20164;-82
2024/01/30 10:13:49;;;;;;;25.40;9.73;;;9.20;99.90;;;;;;5078951;28;20165;-83
2024/01/30 10:16:16;;;;;;;29.70;9.48;;;9.20;99.90;;;;;;5078581;28;20172;-81
2024/01/30 10:18:42;;;;;;;32.80;11.63;;;9.20;99.90;;;;;;5079287;28;20209;-82
2024/01/30 10:21:09;;;;;;;30.90;10.57;;;9.30;99.90;;;;;;5078799;28;20275;-82
2024/01/30 10:23:35;;;;;;;31.27;9.90;;;9.30;99.90;;;;;;5077512;28;20434;-81
2024/01/30 10:26:00;;;;;;;25.27;9.70;;;9.30;99.90;;;;;;5079340;28;20175;-82
2024/01/30 10:28:30;;;;;;;23.80;9.73;;;9.30;99.90;;;;;;5077882;28;20181;-81
2024/01/30 10:31:05;;;;;;;28.58;10.45;;;9.30;99.90;;;;;;5078104;28;20190;-82
2024/01/30 10:33:31;;;;;;;27.23;10.27;;;9.40;99.90;;;;;;5077275;28;20171;-82
2024/01/30 10:36:01;;;;;;;28.37;10.37;;;9.40;99.90;;;;;;5078498;28;20222;-81
2024/01/30 10:38:29;;;;;;;29.92;10.57;;;9.40;99.90;;;;;;5077692;28;20427;-82
2024/01/30 10:41:00;;;;;;;30.50;10.43;;;9.50;99.90;;;;;;5081318;28;20673;-81
2024/01/30 10:43:41;;;;;;;37.03;11.13;;;9.50;99.90;;;;;;5077448;28;20588;-82
2024/01/30 10:46:14;;;;;;;39.05;10.63;;;9.60;99.90;;;;;;5078506;28;20159;-82
2024/01/30 10:48:44;;;;;;;27.27;10.60;;;9.60;99.90;;;;;;5077923;28;20580;-82
2024/01/30 10:51:12;;;;;;;30.52;9.30;;;9.70;99.90;;;;;;5076682;28;20187;-82
2024/01/30 10:53:39;;;;;;;28.35;10.82;;;9.80;99.90;;;;;;5078787;28;20207;-82
2024/01/30 10:56:05;;;;;;;25.15;9.60;;;9.80;99.90;;;;;;5078032;28;20252;-82
2024/01/30 10:58:31;;;;;;;31.23;10.23;;;9.80;99.90;;;;;;5078019;28;20204;-82
2024/01/30 11:00:58;;;;;;;27.67;9.87;;;9.90;99.90;;;;;;5078505;28;20202;-82
2024/01/30 11:03:24;;;;;;;28.23;10.10;;;9.90;99.90;;;;;;5078047;28;20183;-82
2024/01/30 11:05:53;;;;;;;35.63;10.80;;;10.00;99.90;;;;;;5077966;28;20172;-82
2024/01/30 11:08:25;;;;;;;33.28;10.60;;;10.00;99.90;;;;;;5076829;28;20271;-82
2024/01/30 11:10:58;;;;;;;27.38;9.68;;;10.10;99.90;;;;;;5078339;28;20256;-82
2024/01/30 11:13:31;;;;;;;26.95;9.32;;;10.20;99.90;;;;;;5079068;28;20509;-82
2024/01/30 11:16:04;;;;;;;27.10;9.25;;;10.20;99.90;;;;;;5078551;28;20172;-82
2024/01/30 11:18:31;;;;;;;30.17;10.80;;;10.20;99.90;;;;;;5076957;28;20185;-82
2024/01/30 11:20:58;;;;;;;24.90;9.13;;;10.30;99.90;;;;;;5078170;28;20184;-82
2024/01/30 11:23:23;;;;;;;27.98;10.10;;;10.40;99.90;;;;;;5077966;28;20528;-82
2024/01/30 11:25:51;;;;;;;25.33;8.93;;;10.50;99.90;;;;;;5077654;28;20161;-81
2024/01/30 11:28:18;;;;;;;30.88;9.35;;;10.60;99.90;;;;;;5077557;28;20255;-82
2024/01/30 11:30:44;;;;;;;24.13;8.70;;;10.60;99.90;;;;;;5076511;28;20652;-82
2024/01/30 11:33:12;;;;;;;27.02;10.23;;;10.80;99.90;;;;;;5076265;28;20946;-82
2024/01/30 11:35:39;;;;;;;24.83;9.70;;;10.80;99.90;;;;;;5078921;28;20171;-82
2024/01/30 11:38:06;;;;;;;27.10;8.75;;;10.90;99.90;;;;;;5080211;28;20181;-82
2024/01/30 11:40:33;;;;;;;25.35;9.35;;;11.00;99.90;;;;;;5077995;28;20184;-82
2024/01/30 11:43:01;;;;;;;28.83;8.70;;;11.00;99.90;;;;;;5077085;28;20169;-82
2024/01/30 11:45:27;;;;;;;23.25;8.40;;;11.10;99.90;;;;;;5076943;28;20641;-82
2024/01/30 11:47:54;;;;;;;23.38;8.15;;;11.10;99.90;;;;;;5077042;28;20185;-82
2024/01/30 11:50:20;;;;;;;24.55;8.07;;;11.20;99.90;;;;;;5080644;28;20168;-82
2024/01/30 11:52:46;;;;;;;26.45;8.07;;;11.20;99.90;;;;;;5079238;28;20168;-82
2024/01/30 11:55:13;;;;;;;24.80;8.88;;;11.20;99.90;;;;;;5079091;28;20180;-82
2024/01/30 11:57:38;;;;;;;29.83;7.55;;;11.10;99.90;;;;;;5079785;28;20728;-82
2024/01/30 12:00:10;;;;;;;23.53;7.60;;;11.20;99.90;;;;;;5080929;28;20196;-82
2024/01/30 12:02:39;;;;;;;25.30;8.45;;;11.20;99.90;;;;;;5081101;28;20490;-82
2024/01/30 12:05:09;;;;;;;22.98;7.97;;;11.20;99.90;;;;;;5079113;28;20199;-82
2024/01/30 12:07:34;;;;;;;31.42;8.07;;;11.30;99.90;;;;;;5080837;28;20177;-82
2024/01/30 12:10:00;;;;;;;23.60;7.70;;;11.30;99.90;;;;;;5080722;28;20275;-82
2024/01/30 12:12:27;;;;;;;31.40;7.73;;;11.30;99.90;;;;;;5080165;28;20181;-81
2024/01/30 12:14:53;;;;;;;21.55;7.80;;;11.30;99.90;;;;;;5080607;28;20176;-82
2024/01/30 12:17:28;;;;;;;33.85;9.18;;;11.30;99.90;;;;;;5079925;28;20676;-82
2024/01/30 12:20:06;;;;;;;26.20;8.10;;;11.30;99.90;;;;;;5078427;28;20199;-82
2024/01/30 12:22:35;;;;;;;25.35;8.10;;;11.30;99.90;;;;;;5079931;28;20705;-82
2024/01/30 12:25:01;;;;;;;23.48;7.78;;;11.40;99.90;;;;;;5080193;28;20187;-82
2024/01/30 12:27:27;;;;;;;24.97;7.90;;;11.40;99.90;;;;;;5079821;28;20177;-82
2024/01/30 12:29:57;;;;;;;24.13;8.50;;;11.50;99.90;;;;;;5078910;28;20460;-82
2024/01/30 12:32:24;;;;;;;28.13;8.27;;;11.50;99.90;;;;;;5079700;28;20173;-82
2024/01/30 12:34:49;;;;;;;22.45;7.75;;;11.50;99.90;;;;;;5080336;28;20168;-82
2024/01/30 12:37:22;;;;;;;25.73;7.73;;;11.50;99.90;;;;;;5078379;28;20215;-82
2024/01/30 12:39:48;;;;;;;26.50;8.35;;;11.50;99.90;;;;;;5080268;28;20181;-82
2024/01/30 12:42:14;;;;;;;23.53;7.30;;;11.60;99.90;;;;;;5079132;28;20171;-82